Time;durP1;ratioP1;P1;durP2;ratioP2;P2;SDS_P1;SDS_P2;PMS_P1;PMS_P2;Temp;Humidity;BMP_temperature;BMP_pressure;BME280_temperature;BME280_humidity;BME280_pressure;Samples;Min_cycle;Max_cycle;Signal;HPM_P1;HPM_P2
2022/09/24 00:01:12;;;;;;;;;;;13.50;99.90;;;;;;5066263;28;19924;-82
2022/09/24 00:03:38;;;;;;;;;;;13.50;99.90;;;;;;5051889;28;19940;-81
2022/09/24 00:06:23;;;;;;;;;;;13.50;99.90;;;;;;5042466;28;20402;-82
2022/09/24 00:08:49;;;;;;;;;;;13.50;99.90;;;;;;5054192;28;19989;-81
2022/09/24 00:11:18;;;;;;;;;;;13.50;99.90;;;;;;5053641;28;19928;-80
2022/09/24 00:13:47;;;;;;;;;;;13.50;99.90;;;;;;5046158;28;19928;-84
2022/09/24 00:16:14;;;;;;;;;;;13.40;99.90;;;;;;5071098;28;19923;-82
2022/09/24 00:18:40;;;;;;;;;;;13.50;99.90;;;;;;5088129;28;20023;-79
2022/09/24 00:21:18;;;;;;;;;;;13.50;99.90;;;;;;5054507;28;19924;-81
2022/09/24 00:23:47;;;;;;;;;;;13.50;99.90;;;;;;5053706;28;20692;-82
2022/09/24 00:28:58;;;;;;;;;;;13.50;99.90;;;;;;5070145;28;20010;-81
2022/09/24 00:31:24;;;;;;;;;;;13.50;99.90;;;;;;5069872;28;19924;-80
2022/09/24 00:33:51;;;;;;;;;;;13.50;99.90;;;;;;5068783;28;20019;-79
2022/09/24 00:36:17;;;;;;;;;;;13.50;99.90;;;;;;5066061;28;20517;-81
2022/09/24 00:38:47;;;;;;;;;;;13.50;99.90;;;;;;5070851;28;20018;-81
2022/09/24 00:41:13;;;;;;;;;;;13.50;99.90;;;;;;5087611;28;20015;-79
2022/09/24 00:43:39;;;;;;;;;;;13.50;99.90;;;;;;5049342;28;20011;-83
2022/09/24 00:46:24;;;;;;;;;;;13.50;99.90;;;;;;5068940;28;19928;-80
2022/09/24 00:48:51;;;;;;;;;;;13.50;99.90;;;;;;5051325;28;19924;-83
2022/09/24 00:51:19;;;;;;;;;;;13.50;99.90;;;;;;5065345;28;19931;-78
2022/09/24 00:53:45;;;;;;;;;;;13.50;99.90;;;;;;5050519;28;19924;-80
2022/09/24 00:56:14;;;;;;;;;;;13.50;99.90;;;;;;5053440;28;19924;-81
2022/09/24 00:58:42;;;;;;;;;;;13.50;99.90;;;;;;5066017;28;19932;-85
2022/09/24 01:01:07;;;;;;;;;;;13.50;99.90;;;;;;5050547;28;19965;-84
2022/09/24 01:03:38;;;;;;;;;;;13.50;99.90;;;;;;5069616;28;20045;-81
2022/09/24 01:06:06;;;;;;;;;;;13.50;99.90;;;;;;5065746;28;19924;-78
2022/09/24 01:08:32;;;;;;;;;;;13.50;99.90;;;;;;5050945;28;19935;-83
2022/09/24 01:11:07;;;;;;;;;;;13.50;99.90;;;;;;5069067;28;19924;-77
2022/09/24 01:13:39;;;;;;;;;;;13.50;99.90;;;;;;5069203;28;19925;-80
2022/09/24 01:16:24;;;;;;;;;;;13.50;99.90;;;;;;5067469;28;19986;-78
2022/09/24 01:19:01;;;;;;;;;;;13.50;99.90;;;;;;5069342;28;19932;-77
2022/09/24 01:21:27;;;;;;;;;;;13.50;99.90;;;;;;5047970;28;19924;-77
2022/09/24 01:24:11;;;;;;;;;;;13.50;99.90;;;;;;5044778;28;19921;-78
2022/09/24 01:26:40;;;;;;;;;;;13.60;99.90;;;;;;5064127;28;19985;-81
2022/09/24 01:29:25;;;;;;;;;;;13.60;99.90;;;;;;5069056;28;19924;-82
2022/09/24 01:32:04;;;;;;;;;;;13.60;99.90;;;;;;5068485;28;19924;-79
2022/09/24 01:34:36;;;;;;;;;;;13.60;99.90;;;;;;5068495;28;20282;-77
2022/09/24 01:37:03;;;;;;;;;;;13.60;99.90;;;;;;5068563;28;19969;-77
2022/09/24 01:39:30;;;;;;;;;;;13.60;99.90;;;;;;5067948;28;19935;-77
2022/09/24 01:41:56;;;;;;;;;;;13.60;99.90;;;;;;5061808;28;19929;-78
2022/09/24 01:44:21;;;;;;;;;;;13.60;99.90;;;;;;5061355;28;19924;-78
2022/09/24 01:46:48;;;;;;;;;;;13.60;99.90;;;;;;5048224;28;20019;-78
2022/09/24 01:49:14;;;;;;;;;;;13.60;99.90;;;;;;5046210;28;19943;-77
2022/09/24 01:51:47;;;;;;;;;;;13.60;99.90;;;;;;5070293;28;19943;-83
2022/09/24 01:54:28;;;;;;;;;;;13.60;99.90;;;;;;5054280;28;19924;-76
2022/09/24 01:56:57;;;;;;;;;;;13.60;99.90;;;;;;5056871;28;19928;-88
2022/09/24 01:59:29;;;;;;;;;;;13.60;99.90;;;;;;5063613;28;19932;-78
2022/09/24 02:02:03;;;;;;;;;;;13.60;99.90;;;;;;5065954;28;19939;-79
2022/09/24 02:04:32;;;;;;;;;;;13.60;99.90;;;;;;5085453;28;19975;-79
2022/09/24 02:09:35;;;;;;;;;;;13.60;99.90;;;;;;5145220;22;19932;-81
2022/09/24 02:12:10;;;;;;;;;;;13.60;99.90;;;;;;5067483;28;19932;-83
2022/09/24 02:14:39;;;;;;;;;;;13.60;99.90;;;;;;5047145;28;19936;-83
2022/09/24 02:17:05;;;;;;;;;;;13.70;99.90;;;;;;5063294;28;19951;-80
2022/09/24 02:19:34;;;;;;;;;;;13.60;99.90;;;;;;5069423;28;19932;-81
2022/09/24 02:22:00;;;;;;;;;;;13.60;99.90;;;;;;5067391;28;20374;-81
2022/09/24 02:24:32;;;;;;;;;;;13.60;99.90;;;;;;5068955;28;19928;-81
2022/09/24 02:26:58;;;;;;;;;;;13.60;99.90;;;;;;5068716;28;19928;-82
2022/09/24 02:29:23;;;;;;;;;;;13.70;99.90;;;;;;5069106;28;19954;-80
2022/09/24 02:31:51;;;;;;;;;;;13.60;99.90;;;;;;5043211;28;19932;-80
2022/09/24 02:34:19;;;;;;;;;;;13.60;99.90;;;;;;5065373;28;19981;-80
2022/09/24 02:36:53;;;;;;;;;;;13.70;99.90;;;;;;5068424;28;19982;-80
2022/09/24 02:39:19;;;;;;;;;;;13.60;99.90;;;;;;5047163;28;19928;-80
2022/09/24 02:41:48;;;;;;;;;;;13.60;99.90;;;;;;5065245;28;19924;-80
2022/09/24 02:44:15;;;;;;;;;;;13.60;99.90;;;;;;5069399;28;20283;-80
2022/09/24 02:46:41;;;;;;;;;;;13.60;99.90;;;;;;5068202;28;20306;-80
2022/09/24 02:49:11;;;;;;;;;;;13.60;99.90;;;;;;5049104;28;19931;-81
2022/09/24 02:51:36;;;;;;;;;;;13.60;99.90;;;;;;5067515;28;19921;-80
2022/09/24 02:54:03;;;;;;;;;;;13.60;99.90;;;;;;5067677;28;19931;-80
2022/09/24 02:56:29;;;;;;;;;;;13.60;99.90;;;;;;5051358;28;19973;-82
2022/09/24 02:58:55;;;;;;;;;;;13.60;99.90;;;;;;5069739;28;19925;-80
2022/09/24 03:01:22;;;;;;;;;;;13.60;99.90;;;;;;5069076;28;20359;-80
2022/09/24 03:03:48;;;;;;;;;;;13.60;99.90;;;;;;5067417;28;20484;-80
2022/09/24 03:06:13;;;;;;;;;;;13.60;99.90;;;;;;5069969;28;19935;-80
2022/09/24 03:08:43;;;;;;;;;;;13.60;99.90;;;;;;5076872;28;19932;-79
2022/09/24 03:11:09;;;;;;;;;;;13.50;99.90;;;;;;5069191;28;19924;-80
2022/09/24 03:13:36;;;;;;;;;;;13.60;99.90;;;;;;5066120;28;19973;-81
2022/09/24 03:16:02;;;;;;;;;;;13.60;99.90;;;;;;5070271;28;19924;-80
2022/09/24 03:18:28;;;;;;;;;;;13.70;99.90;;;;;;5083204;28;20035;-80
2022/09/24 03:20:57;;;;;;;;;;;13.70;99.90;;;;;;5065445;28;19936;-79
2022/09/24 03:23:23;;;;;;;;;;;13.60;99.90;;;;;;5075053;28;19958;-80
2022/09/24 03:25:49;;;;;;;;;;;13.70;99.90;;;;;;5085755;28;19928;-80
2022/09/24 03:28:15;;;;;;;;;;;13.70;99.90;;;;;;5068915;28;19928;-80
2022/09/24 03:31:00;;;;;;;;;;;13.70;99.90;;;;;;5084164;28;19924;-80
2022/09/24 03:33:27;;;;;;;;;;;13.70;99.90;;;;;;5071279;28;19924;-79
2022/09/24 03:35:57;;;;;;;;;;;13.70;99.90;;;;;;5087161;28;20031;-82
2022/09/24 03:38:23;;;;;;;;;;;13.70;99.90;;;;;;5086832;28;19925;-80
2022/09/24 03:40:49;;;;;;;;;;;13.60;99.90;;;;;;5082839;28;19962;-81
2022/09/24 03:43:14;;;;;;;;;;;13.70;99.90;;;;;;5051403;28;19975;-80
2022/09/24 03:45:40;;;;;;;;;;;13.70;99.90;;;;;;5069757;28;19924;-80
2022/09/24 03:48:06;;;;;;;;;;;13.70;99.90;;;;;;5068671;28;20656;-80
2022/09/24 03:50:34;;;;;;;;;;;13.70;99.90;;;;;;5069088;28;19935;-81
2022/09/24 03:53:00;;;;;;;;;;;13.70;99.90;;;;;;5085580;28;19931;-81
2022/09/24 03:55:26;;;;;;;;;;;13.70;99.90;;;;;;5085827;28;19939;-80
2022/09/24 03:57:52;;;;;;;;;;;13.70;99.90;;;;;;5051865;28;20072;-81
2022/09/24 04:00:18;;;;;;;;;;;13.70;99.90;;;;;;5084311;28;19935;-80
2022/09/24 04:02:44;;;;;;;;;;;13.70;99.90;;;;;;5069047;28;19933;-81
2022/09/24 04:05:09;;;;;;;;;;;13.70;99.90;;;;;;5082222;28;19932;-80
2022/09/24 04:07:35;;;;;;;;;;;13.70;99.90;;;;;;5086442;28;19935;-80
2022/09/24 04:10:02;;;;;;;;;;;13.70;99.90;;;;;;5085405;28;19958;-80
2022/09/24 04:12:29;;;;;;;;;;;13.70;99.90;;;;;;5071664;28;19924;-81
2022/09/24 04:14:55;;;;;;;;;;;13.70;99.90;;;;;;5055438;28;19924;-80
2022/09/24 04:17:21;;;;;;;;;;;13.70;99.90;;;;;;5088931;28;20449;-80
2022/09/24 04:19:47;;;;;;;;;;;13.70;99.90;;;;;;5089029;28;19927;-81
2022/09/24 04:22:13;;;;;;;;;;;13.70;99.90;;;;;;5081485;28;19935;-80
2022/09/24 04:24:39;;;;;;;;;;;13.70;99.90;;;;;;5053703;28;19923;-80
2022/09/24 04:27:05;;;;;;;;;;;13.70;99.90;;;;;;5086203;28;19932;-81
2022/09/24 04:29:30;;;;;;;;;;;13.80;99.90;;;;;;5052575;28;19931;-80
2022/09/24 04:31:56;;;;;;;;;;;13.80;99.90;;;;;;5071585;28;20376;-81
2022/09/24 04:34:22;;;;;;;;;;;13.80;99.90;;;;;;5088145;28;19924;-80
2022/09/24 04:36:48;;;;;;;;;;;13.80;99.90;;;;;;5085295;28;19927;-80
2022/09/24 04:39:14;;;;;;;;;;;13.80;99.90;;;;;;5079466;28;20391;-80
2022/09/24 04:41:40;;;;;;;;;;;13.70;99.90;;;;;;5070183;28;20263;-80
2022/09/24 04:44:06;;;;;;;;;;;13.70;99.90;;;;;;5088544;28;19923;-80
2022/09/24 04:46:34;;;;;;;;;;;13.70;99.90;;;;;;5088243;28;19939;-81
2022/09/24 04:49:00;;;;;;;;;;;13.70;99.90;;;;;;5086366;28;19981;-80
2022/09/24 04:51:26;;;;;;;;;;;13.70;99.90;;;;;;5088399;28;20410;-80
2022/09/24 04:53:51;;;;;;;;;;;13.70;99.90;;;;;;5085537;28;20310;-80
2022/09/24 04:56:17;;;;;;;;;;;13.60;99.90;;;;;;5070978;28;19924;-80
2022/09/24 04:58:43;;;;;;;;;;;13.60;99.90;;;;;;5087377;28;19931;-80
2022/09/24 05:01:09;;;;;;;;;;;13.60;99.90;;;;;;5088210;28;19920;-80
2022/09/24 05:03:35;;;;;;;;;;;13.60;99.90;;;;;;5087846;28;19924;-80
2022/09/24 05:06:01;;;;;;;;;;;13.60;99.90;;;;;;5090043;28;20065;-80
2022/09/24 05:08:27;;;;;;;;;;;13.50;99.90;;;;;;5084578;28;20011;-81
2022/09/24 05:10:53;;;;;;;;;;;13.80;99.90;;;;;;5049723;28;19935;-81
2022/09/24 05:13:19;;;;;;;;;;;13.60;99.90;;;;;;5065309;28;19936;-81
2022/09/24 05:15:45;;;;;;;;;;;13.50;99.90;;;;;;5084558;28;19924;-81
2022/09/24 05:18:13;;;;;;;;;;;13.50;99.90;;;;;;5084552;28;20402;-81
2022/09/24 05:20:39;;;;;;;;;;;13.50;99.90;;;;;;5072249;28;20414;-81
2022/09/24 05:23:05;;;;;;;;;;;13.50;99.90;;;;;;5088616;28;19924;-82
2022/09/24 05:25:32;;;;;;;;;;;13.50;99.90;;;;;;5065197;28;20449;-81
2022/09/24 05:27:58;;;;;;;;;;;13.40;99.90;;;;;;5083460;28;19924;-80
2022/09/24 05:30:24;;;;;;;;;;;13.50;99.90;;;;;;5063749;28;19959;-82
2022/09/24 05:32:53;;;;;;;;;;;13.50;99.90;;;;;;5068216;28;19959;-81
2022/09/24 05:35:19;;;;;;;;;;;13.50;99.90;;;;;;5068771;28;20294;-81
2022/09/24 05:37:47;;;;;;;;;;;13.50;99.90;;;;;;5084058;28;19931;-83
2022/09/24 05:43:01;;;;;;;;;;;13.50;99.90;;;;;;5077735;28;20641;-83
2022/09/24 05:45:31;;;;;;;;;;;13.50;99.90;;;;;;5065834;28;20401;-85
2022/09/24 05:47:58;;;;;;;;;;;13.50;99.90;;;;;;5084573;28;19931;-83
2022/09/24 05:50:24;;;;;;;;;;;13.50;99.90;;;;;;5088348;28;19924;-84
2022/09/24 05:52:50;;;;;;;;;;;13.50;99.90;;;;;;5068498;28;19928;-85
2022/09/24 05:55:16;;;;;;;;;;;13.50;99.90;;;;;;5068008;28;19942;-85
2022/09/24 05:57:42;;;;;;;;;;;13.50;99.90;;;;;;5050371;28;20074;-86
2022/09/24 06:00:10;;;;;;;;;;;13.60;99.90;;;;;;5050630;28;19924;-87
2022/09/24 06:02:36;;;;;;;;;;;13.50;99.90;;;;;;5066729;28;19936;-84
2022/09/24 06:05:02;;;;;;;;;;;13.50;99.90;;;;;;5064456;28;19951;-81
2022/09/24 06:07:27;;;;;;;;;;;13.50;99.90;;;;;;5038792;28;19962;-83
2022/09/24 06:09:58;;;;;;;;;;;13.50;99.90;;;;;;5069269;28;19938;-84
2022/09/24 06:12:24;;;;;;;;;;;13.60;99.90;;;;;;5056098;28;20020;-85
2022/09/24 06:14:52;;;;;;;;;;;13.60;99.90;;;;;;5089559;28;20492;-84
2022/09/24 06:17:18;;;;;;;;;;;13.60;99.90;;;;;;5051145;28;19926;-87
2022/09/24 06:19:46;;;;;;;;;;;13.60;99.90;;;;;;5089626;28;20038;-86
2022/09/24 06:22:12;;;;;;;;;;;13.60;99.90;;;;;;5086097;28;20140;-85
2022/09/24 06:24:39;;;;;;;;;;;13.60;99.90;;;;;;5089988;28;19924;-85
2022/09/24 06:27:05;;;;;;;;;;;13.70;99.90;;;;;;5055096;28;19963;-85
2022/09/24 06:29:32;;;;;;;;;;;13.80;99.90;;;;;;5104498;28;19938;-83
2022/09/24 06:32:00;;;;;;;;;;;13.60;99.90;;;;;;5069432;28;19935;-84
2022/09/24 06:34:27;;;;;;;;;;;13.70;99.90;;;;;;5086140;28;20322;-85
2022/09/24 06:36:53;;;;;;;;;;;13.70;99.90;;;;;;5069585;28;20586;-83
2022/09/24 06:39:19;;;;;;;;;;;13.70;99.90;;;;;;5069667;28;20436;-84
2022/09/24 06:41:48;;;;;;;;;;;13.70;99.90;;;;;;5069599;28;19920;-88
2022/09/24 06:44:16;;;;;;;;;;;13.70;99.90;;;;;;5055354;28;19932;-85
2022/09/24 06:46:44;;;;;;;;;;;13.70;99.90;;;;;;5073347;28;19928;-84
2022/09/24 06:49:13;;;;;;;;;;;13.90;99.90;;;;;;5072861;28;20016;-82
2022/09/24 06:51:38;;;;;;;;;;;13.70;99.90;;;;;;5052967;28;20182;-83
2022/09/24 06:54:05;;;;;;;;;;;13.80;99.90;;;;;;5086796;28;19942;-84
2022/09/24 06:56:30;;;;;;;;;;;13.70;99.90;;;;;;5062281;28;19938;-83
2022/09/24 06:58:56;;;;;;;;;;;13.70;99.90;;;;;;5088025;28;19924;-83
2022/09/24 07:01:22;;;;;;;;;;;13.70;99.90;;;;;;5050036;28;19931;-83
2022/09/24 07:03:48;;;;;;;;;;;13.60;99.90;;;;;;5084908;28;20005;-83
2022/09/24 07:06:14;;;;;;;;;;;13.80;99.90;;;;;;5089361;28;19932;-86
2022/09/24 07:08:40;;;;;;;;;;;13.80;99.90;;;;;;5070427;28;20056;-82
2022/09/24 07:11:06;;;;;;;;;;;13.80;99.90;;;;;;5066681;28;19924;-85
2022/09/24 07:13:32;;;;;;;;;;;13.80;99.90;;;;;;5083751;28;19970;-85
2022/09/24 07:16:00;;;;;;;;;;;13.80;99.90;;;;;;5067681;28;19978;-84
2022/09/24 07:18:26;;;;;;;;;;;13.80;99.90;;;;;;5051995;28;20373;-86
2022/09/24 07:20:52;;;;;;;;;;;13.80;99.90;;;;;;5086288;28;19967;-83
2022/09/24 07:23:20;;;;;;;;;;;13.80;99.90;;;;;;5050801;28;20283;-84
2022/09/24 07:25:46;;;;;;;;;;;13.70;99.90;;;;;;5064558;28;19943;-83
2022/09/24 07:28:15;;;;;;;;;;;13.80;99.90;;;;;;5054232;28;19924;-85
2022/09/24 07:30:41;;;;;;;;;;;13.80;99.90;;;;;;5086045;28;19931;-85
2022/09/24 07:33:07;;;;;;;;;;;13.70;99.90;;;;;;5068248;28;20251;-84
2022/09/24 07:35:36;;;;;;;;;;;13.80;99.90;;;;;;5088225;28;19932;-84
2022/09/24 07:38:03;;;;;;;;;;;13.80;99.90;;;;;;5067728;28;19928;-82
2022/09/24 07:40:32;;;;;;;;;;;13.70;99.90;;;;;;5068218;28;19938;-84
2022/09/24 07:42:58;;;;;;;;;;;13.80;99.90;;;;;;5052698;28;19936;-83
2022/09/24 07:45:33;;;;;;;;;;;13.70;99.90;;;;;;5065911;28;20390;-84
2022/09/24 07:48:03;;;;;;;;;;;15.10;99.90;;;;;;5086207;28;20434;-82
2022/09/24 07:50:30;;;;;;;;;;;13.90;99.90;;;;;;5070512;28;19924;-84
2022/09/24 07:52:56;;;;;;;;;;;14.10;99.90;;;;;;5070317;28;19959;-82
2022/09/24 07:55:23;;;;;;;;;;;14.00;99.90;;;;;;5068745;28;19924;-83
2022/09/24 07:57:49;;;;;;;;;;;;;;;;;;5063877;28;20017;-80
2022/09/24 08:00:18;;;;;;;;;;;13.90;99.90;;;;;;5085545;28;19980;-82
2022/09/24 08:02:44;;;;;;;;;;;13.90;99.90;;;;;;5088755;28;19931;-89
2022/09/24 08:05:11;;;;;;;;;;;13.80;99.90;;;;;;5084525;28;19935;-81
2022/09/24 08:07:37;;;;;;;;;;;13.80;99.90;;;;;;5085634;28;19928;-83
2022/09/24 08:10:04;;;;;;;;;;;13.80;99.90;;;;;;5069260;28;19933;-83
2022/09/24 08:12:30;;;;;;;;;;;13.80;99.90;;;;;;5086488;28;21160;-83
2022/09/24 08:14:56;;;;;;;;;;;13.90;99.90;;;;;;5084825;28;20014;-85
2022/09/24 08:17:25;;;;;;;;;;;13.90;99.90;;;;;;5051619;28;21887;-86
2022/09/24 08:19:55;;;;;;;;;;;13.90;99.90;;;;;;5070468;28;19930;-83
2022/09/24 08:22:22;;;;;;;;;;;13.90;99.90;;;;;;5066667;28;20328;-83
2022/09/24 08:24:49;;;;;;;;;;;14.00;99.90;;;;;;5084902;28;19924;-85
2022/09/24 08:27:16;;;;;;;;;;;14.20;99.90;;;;;;5068177;28;19995;-82
2022/09/24 08:29:42;;;;;;;;;;;14.00;99.90;;;;;;5068613;28;20011;-87
2022/09/24 08:32:08;;;;;;;;;;;14.10;99.90;;;;;;1038479;22;20280;-81
2022/09/24 08:34:37;;;;;;;;;;;14.20;99.90;;;;;;5042338;28;20278;-84
2022/09/24 08:37:04;;;;;;;;;;;14.20;99.90;;;;;;5049998;28;20608;-84
2022/09/24 08:39:45;;;;;;;;;;;14.30;99.90;;;;;;5048493;28;19928;-86
2022/09/24 08:42:14;;;;;;;;;;;14.30;99.90;;;;;;5045578;28;19920;-81
2022/09/24 08:47:28;;;;;;;;;;;15.20;99.90;;;;;;5063278;28;19935;-83
2022/09/24 08:50:00;;;;;;;;;;;14.40;99.90;;;;;;5052332;28;19950;-84
2022/09/24 08:52:35;;;;;;;;;;;14.50;99.90;;;;;;5047425;28;19924;-87
2022/09/24 08:55:07;;;;;;;;;;;14.70;99.90;;;;;;5049178;28;19950;-84
2022/09/24 08:57:53;;;;;;;;;;;14.60;99.90;;;;;;5047394;28;19941;-85
2022/09/24 09:00:19;;;;;;;;;;;14.60;99.90;;;;;;5045029;28;19932;-84
2022/09/24 09:03:01;;;;;;;;;;;14.50;99.90;;;;;;5031197;28;19966;-82
2022/09/24 09:05:46;;;;;;;;;;;14.60;99.90;;;;;;5050347;28;20358;-86
2022/09/24 09:08:28;;;;;;;;;;;14.50;99.90;;;;;;5065231;28;19924;-82
2022/09/24 09:10:57;;;;;;;;;;;14.50;99.90;;;;;;5041960;28;20007;-86
2022/09/24 09:13:27;;;;;;;;;;;14.50;99.90;;;;;;5047893;28;19990;-85
2022/09/24 09:16:12;;;;;;;;;;;14.50;99.90;;;;;;5050625;28;19928;-83
2022/09/24 09:18:40;;;;;;;;;;;14.50;99.90;;;;;;5063255;28;19978;-83
2022/09/24 09:21:17;;;;;;;;;;;14.50;99.90;;;;;;5057108;28;20567;-81
2022/09/24 09:23:47;;;;;;;;;;;14.40;99.90;;;;;;5047923;28;19931;-83
2022/09/24 09:26:13;;;;;;;;;;;14.40;99.90;;;;;;5063790;28;20011;-82
2022/09/24 09:28:40;;;;;;;;;;;14.40;99.90;;;;;;5049967;28;19924;-84
2022/09/24 09:31:17;;;;;;;;;;;14.20;99.90;;;;;;5067910;28;19931;-84
2022/09/24 09:33:46;;;;;;;;;;;14.20;99.90;;;;;;5077575;28;20880;-85
2022/09/24 09:36:31;;;;;;;;;;;14.10;99.90;;;;;;5067604;28;20026;-82
2022/09/24 09:39:15;;;;;;;;;;;14.00;99.90;;;;;;5060059;28;19931;-82
2022/09/24 09:42:02;;;;;;;;;;;14.00;99.90;;;;;;5080895;28;19972;-84
2022/09/24 09:44:32;;;;;;;;;;;13.90;99.90;;;;;;5023778;28;19928;-85
2022/09/24 09:47:23;;;;;;;;;;;13.90;99.90;;;;;;5045651;28;20033;-84
2022/09/24 09:49:51;;;;;;;;;;;13.90;99.90;;;;;;5073416;28;19928;-84
2022/09/24 09:52:19;;;;;;;;;;;13.90;99.90;;;;;;5083776;28;19928;-86
2022/09/24 09:54:45;;;;;;;;;;;13.90;99.90;;;;;;5086732;28;20362;-84
2022/09/24 09:57:18;;;;;;;;;;;13.90;99.90;;;;;;5050031;28;20357;-88
2022/09/24 09:59:45;;;;;;;;;;;13.90;99.90;;;;;;5067437;28;19939;-87
2022/09/24 10:02:18;;;;;;;;;;;14.00;99.90;;;;;;5088304;28;20512;-82
2022/09/24 10:04:43;;;;;;;;;;;13.90;99.90;;;;;;5072479;28;19936;-84
2022/09/24 10:07:11;;;;;;;;;;;14.00;99.90;;;;;;5050064;28;20492;-83
2022/09/24 10:09:37;;;;;;;;;;;13.90;99.90;;;;;;5085278;28;19967;-85
2022/09/24 10:12:28;;;;;;;;;;;13.20;99.90;;;;;;5070502;28;19928;-88
2022/09/24 10:14:57;;;;;;;;;;;13.90;99.90;;;;;;5073245;28;20015;-86
2022/09/24 10:17:26;;;;;;;;;;;14.10;99.90;;;;;;5071210;28;19971;-89
2022/09/24 10:19:53;;;;;;;;;;;14.00;99.90;;;;;;5092798;28;20439;-83
2022/09/24 10:22:24;;;;;;;;;;;14.00;99.90;;;;;;5072174;28;19959;-81
2022/09/24 10:24:50;;;;;;;;;;;14.00;99.90;;;;;;5090142;28;19996;-86
2022/09/24 10:27:42;;;;;;;;;;;14.00;99.90;;;;;;5074532;28;19927;-86
2022/09/24 10:32:57;;;;;;;;;;;14.00;99.90;;;;;;5096623;28;19924;-87
2022/09/24 10:35:28;;;;;;;;;;;14.00;99.90;;;;;;5046806;28;19999;-89
2022/09/24 10:37:55;;;;;;;;;;;14.00;99.90;;;;;;5070902;28;19932;-86
2022/09/24 10:40:39;;;;;;;;;;;14.00;99.90;;;;;;5066289;28;19924;-86
2022/09/24 10:43:06;;;;;;;;;;;14.00;99.90;;;;;;5050099;28;19939;-89
2022/09/24 10:45:45;;;;;;;;;;;14.10;99.90;;;;;;5029853;28;19928;-84
2022/09/24 10:48:15;;;;;;;;;;;14.00;99.90;;;;;;5046184;28;19947;-85
2022/09/24 10:50:56;;;;;;;;;;;14.10;99.90;;;;;;5061236;28;19932;-89
2022/09/24 10:53:48;;;;;;;;;;;14.10;99.90;;;;;;5035708;28;20366;-84
2022/09/24 10:56:20;;;;;;;;;;;14.10;99.90;;;;;;5046692;28;20331;-87
2022/09/24 10:59:01;;;;;;;;;;;14.10;99.90;;;;;;5062360;28;19946;-85
2022/09/24 11:01:38;;;;;;;;;;;14.20;99.90;;;;;;5052591;28;19924;-83
2022/09/24 11:04:19;;;;;;;;;;;14.20;99.90;;;;;;5057976;28;20005;-83
2022/09/24 11:07:03;;;;;;;;;;;14.20;99.90;;;;;;5064828;28;19928;-84
2022/09/24 11:09:49;;;;;;;;;;;14.20;99.90;;;;;;5066144;28;19928;-85
2022/09/24 11:12:45;;;;;;;;;;;14.20;99.90;;;;;;5065112;28;20524;-84
2022/09/24 11:15:20;;;;;;;;;;;14.20;99.90;;;;;;5069284;28;19927;-84
2022/09/24 11:17:53;;;;;;;;;;;14.20;99.90;;;;;;5069441;28;19968;-85
2022/09/24 11:20:29;;;;;;;;;;;14.20;99.90;;;;;;5072437;28;19945;-82
2022/09/24 11:23:13;;;;;;;;;;;14.20;99.90;;;;;;5063586;28;19962;-82
2022/09/24 11:25:54;;;;;;;;;;;14.20;99.90;;;;;;5085963;28;19947;-86
2022/09/24 11:28:20;;;;;;;;;;;;;;;;;;5065571;28;19939;-82
2022/09/24 11:30:49;;;;;;;;;;;14.30;99.90;;;;;;5051954;28;19959;-84
2022/09/24 11:33:27;;;;;;;;;;;14.30;99.90;;;;;;5066521;28;19942;-83
2022/09/24 11:35:56;;;;;;;;;;;14.30;99.90;;;;;;5088733;28;20650;-82
2022/09/24 11:38:42;;;;;;;;;;;14.30;99.90;;;;;;5075129;28;19935;-80
2022/09/24 11:41:11;;;;;;;;;;;14.30;99.90;;;;;;5083329;28;20371;-81
2022/09/24 11:43:37;;;;;;;;;;;14.30;99.90;;;;;;5075090;28;20363;-81
2022/09/24 11:46:16;;;;;;;;;;;14.30;99.90;;;;;;5078294;28;19930;-81
2022/09/24 11:49:05;;;;;;;;;;;13.90;99.90;;;;;;5082506;28;19992;-78
2022/09/24 11:51:41;;;;;;;;;;;14.30;99.90;;;;;;5052486;28;20532;-77
2022/09/24 11:54:07;;;;;;;;;;;14.30;99.90;;;;;;5065695;28;20054;-79
2022/09/24 11:56:35;;;;;;;;;;;14.20;99.90;;;;;;5083212;28;20571;-81
2022/09/24 11:59:10;;;;;;;;;;;14.20;99.90;;;;;;5067983;28;19999;-77
2022/09/24 12:01:39;;;;;;;;;;;14.20;99.90;;;;;;5092537;28;20732;-81
2022/09/24 12:04:10;;;;;;;;;;;14.20;99.90;;;;;;5068104;28;20029;-80
2022/09/24 12:06:51;;;;;;;;;;;14.20;99.90;;;;;;5064423;28;19935;-82
2022/09/24 12:09:21;;;;;;;;;;;14.20;99.90;;;;;;5064015;28;19936;-81
2022/09/24 12:11:51;;;;;;;;;;;14.20;99.90;;;;;;5066452;28;19935;-80
2022/09/24 12:14:25;;;;;;;;;;;14.30;99.90;;;;;;5083900;28;19923;-80
2022/09/24 12:17:11;;;;;;;;;;;14.20;99.90;;;;;;5084538;28;19924;-80
2022/09/24 12:19:56;;;;;;;;;;;14.20;99.90;;;;;;5058385;28;20062;-78
2022/09/24 12:22:23;;;;;;;;;;;14.20;99.90;;;;;;5080466;28;19928;-78
2022/09/24 12:24:53;;;;;;;;;;;14.10;99.90;;;;;;5067284;28;19954;-79
2022/09/24 12:27:27;;;;;;;;;;;14.10;99.90;;;;;;5083994;28;19928;-79
2022/09/24 12:32:53;;;;;;;;;;;14.10;99.90;;;;;;5081162;28;20015;-82
2022/09/24 12:35:26;;;;;;;;;;;14.10;99.90;;;;;;5065431;28;19924;-83
2022/09/24 12:38:13;;;;;;;;;;;14.10;99.90;;;;;;5065819;28;19936;-79
2022/09/24 12:40:45;;;;;;;;;;;14.10;99.90;;;;;;5075742;28;19936;-82
2022/09/24 12:43:24;;;;;;;;;;;14.10;99.90;;;;;;5068466;28;20033;-82
2022/09/24 12:45:58;;;;;;;;;;;14.10;99.90;;;;;;5068402;28;20065;-79
2022/09/24 12:48:25;;;;;;;;;;;14.10;99.90;;;;;;5069352;28;19976;-84
2022/09/24 12:50:58;;;;;;;;;;;14.10;99.90;;;;;;5082342;28;19946;-82
2022/09/24 12:53:36;;;;;;;;;;;14.10;99.90;;;;;;5086878;28;19927;-85
2022/09/24 12:56:03;;;;;;;;;;;14.00;99.90;;;;;;5081398;28;19939;-82
2022/09/24 12:58:37;;;;;;;;;;;14.00;99.90;;;;;;5062222;28;20012;-78
2022/09/24 13:01:10;;;;;;;;;;;14.00;99.90;;;;;;5079027;28;20321;-80
2022/09/24 13:03:37;;;;;;;;;;;13.90;99.90;;;;;;5078941;28;20019;-79
2022/09/24 13:06:17;;;;;;;;;;;13.90;99.90;;;;;;5075746;28;20002;-79
2022/09/24 13:08:43;;;;;;;;;;;13.90;99.90;;;;;;5078204;28;20295;-80
2022/09/24 13:11:41;;;;;;;;;;;13.90;99.90;;;;;;5061032;28;19928;-82
2022/09/24 13:14:18;;;;;;;;;;;13.90;99.90;;;;;;5025795;28;19932;-81
2022/09/24 13:16:46;;;;;;;;;;;13.80;99.90;;;;;;5065612;28;20465;-80
2022/09/24 13:19:25;;;;;;;;;;;13.90;99.90;;;;;;5086379;28;20403;-80
2022/09/24 13:21:53;;;;;;;;;;;13.90;99.90;;;;;;5058524;28;19924;-84
2022/09/24 13:24:25;;;;;;;;;;;13.90;99.90;;;;;;5060068;28;19928;-83
2022/09/24 13:26:51;;;;;;;;;;;13.80;99.90;;;;;;5074458;28;20228;-82
2022/09/24 13:29:24;;;;;;;;;;;13.90;99.90;;;;;;5063030;28;20383;-80
2022/09/24 13:31:54;;;;;;;;;;;13.80;99.90;;;;;;5084572;28;19927;-79
2022/09/24 13:34:28;;;;;;;;;;;13.80;99.90;;;;;;5083607;28;20018;-81
2022/09/24 13:37:14;;;;;;;;;;;13.70;99.90;;;;;;5079307;28;19928;-81
2022/09/24 13:39:42;;;;;;;;;;;13.60;99.90;;;;;;5066655;28;19930;-82
2022/09/24 13:42:11;;;;;;;;;;;13.60;99.90;;;;;;5073764;28;19928;-83
2022/09/24 13:44:45;;;;;;;;;;;13.60;99.90;;;;;;5087674;28;19955;-81
2022/09/24 13:47:26;;;;;;;;;;;13.60;99.90;;;;;;5071009;28;19928;-82
2022/09/24 13:49:55;;;;;;;;;;;13.60;99.90;;;;;;5063634;28;19959;-86
2022/09/24 13:52:36;;;;;;;;;;;13.50;99.90;;;;;;5081420;28;20382;-84
2022/09/24 13:55:06;;;;;;;;;;;13.50;99.90;;;;;;5067762;28;19924;-84
2022/09/24 13:57:41;;;;;;;;;;;13.50;99.90;;;;;;5068473;28;19935;-83
2022/09/24 14:00:20;;;;;;;;;;;13.60;99.90;;;;;;5082006;28;20451;-83
2022/09/24 14:02:55;;;;;;;;;;;13.60;99.90;;;;;;5085067;28;19924;-81
2022/09/24 14:05:21;;;;;;;;;;;13.60;99.90;;;;;;5071568;28;19964;-83
2022/09/24 14:07:54;;;;;;;;;;;13.60;99.90;;;;;;5071794;28;20375;-80
2022/09/24 14:10:23;;;;;;;;;;;13.50;99.90;;;;;;5087191;28;19924;-86
2022/09/24 14:13:07;;;;;;;;;;;13.40;99.90;;;;;;5087361;28;20422;-84
2022/09/24 14:15:35;;;;;;;;;;;13.40;99.90;;;;;;5060498;28;20410;-86
2022/09/24 14:18:01;;;;;;;;;;;13.30;99.90;;;;;;5070018;28;19932;-82
2022/09/24 14:20:28;;;;;;;;;;;13.30;99.90;;;;;;5087456;28;19931;-85
2022/09/24 14:22:53;;;;;;;;;;;13.30;99.90;;;;;;5067189;28;20687;-79
2022/09/24 14:25:23;;;;;;;;;;;13.30;99.90;;;;;;5069615;28;19924;-83
2022/09/24 14:27:50;;;;;;;;;;;13.30;99.90;;;;;;5069278;28;19928;-85
2022/09/24 14:30:27;;;;;;;;;;;13.40;99.90;;;;;;5053394;28;19924;-80
2022/09/24 14:32:56;;;;;;;;;;;13.40;99.90;;;;;;5087380;28;19924;-81
2022/09/24 14:35:34;;;;;;;;;;;13.40;99.90;;;;;;5057915;28;20473;-80
2022/09/24 14:38:07;;;;;;;;;;;13.40;99.90;;;;;;5074875;28;20006;-88
2022/09/24 14:40:42;;;;;;;;;;;13.40;99.90;;;;;;5056076;28;19932;-89
2022/09/24 14:43:30;;;;;;;;;;;13.40;99.90;;;;;;5070402;28;19924;-83
2022/09/24 14:46:11;;;;;;;;;;;13.40;99.90;;;;;;5052581;28;20290;-85
2022/09/24 14:48:38;;;;;;;;;;;13.40;99.90;;;;;;5064791;28;19930;-82
2022/09/24 14:51:04;;;;;;;;;;;13.40;99.90;;;;;;5056784;28;19928;-80
2022/09/24 14:53:36;;;;;;;;;;;13.40;99.90;;;;;;5044047;28;20513;-79